CYZG

Salluit Airport

Code ICAO CYZG
Code IATA YZG
Nom Salluit Airport
Emplacement Salluit, Quebec, CA
Élévation 745 pieds / 227.1 mètres
Latitude 62.17944444
Longitude -75.66722222
METAR CYZG 221900Z 17010KT 15SM BKN021 OVC028 10/06 A2979 RMK SC6SC2 LAST STFD OBS/NEXT 251200 UTC SLP101
Informations extras Afficher cartes
Piste Longueur Largeur Surface Élévation
03 3523 ft 100 ft GRAVEL 723 ft
21 3523 ft 100 ft GRAVEL 745 ft